This is the latest recevied weather packets stored in our database for station/object NEWPRT. If no packets are shown the sender has not sent any weather packets the latest 10 day(s).
| Time | Temp. | Humidity | Pressure | Rain* | Wind** | Luminosity | Snow |
|---|---|---|---|---|---|---|---|
| 1777706724 | - | 72% | 1018.1 hPa | 0 mm | - | - | - |
| 1777706400 | - | 70% | 1018.3 hPa | 0 mm | - | - | - |
| 1777706078 | - | 72% | 1018.4 hPa | 0 mm | - | - | - |
| 1777705754 | - | 71% | 1018.4 hPa | 0 mm | - | - | - |
| 1777705432 | - | 73% | 1018.2 hPa | 0 mm | - | - | - |
| 1777705108 | - | 73% | 1018.2 hPa | 0 mm | - | - | - |
| 1777704785 | - | 72% | 1018.3 hPa | 0 mm | - | - | - |
| 1777704462 | - | 70% | 1018.4 hPa | 0 mm | - | - | - |
| 1777704139 | - | 70% | 1018.3 hPa | 0 mm | - | - | - |
| 1777703817 | - | 71% | 1018.3 hPa | 0 mm | - | - | - |
| 1777703493 | - | 71% | 1018.5 hPa | 0 mm | - | - | - |
| 1777703170 | - | 72% | 1018.6 hPa | 0 mm | - | - | - |
| 1777702848 | - | 73% | 1018.6 hPa | 0 mm | - | - | - |
| 1777702524 | - | 70% | 1018.7 hPa | 0 mm | - | - | - |
| 1777702201 | - | 72% | 1018.4 hPa | 0 mm | - | - | - |
| 1777701878 | - | 71% | 1018.7 hPa | 0 mm | - | - | - |
| 1777701555 | - | 72% | 1018.6 hPa | 0 mm | - | - | - |
| 1777701232 | - | 73% | 1018.6 hPa | 0 mm | - | - | - |
| 1777700909 | - | 72% | 1018.5 hPa | 0 mm | - | - | - |
| 1777700586 | - | 73% | 1018.6 hPa | 0 mm | - | - | - |
| 1777700263 | - | 69% | 1018.7 hPa | 0 mm | - | - | - |
| 1777699940 | - | 71% | 1018.5 hPa | 0 mm | - | - | - |
| 1777699620 | - | 72% | 1018.6 hPa | 0 mm | - | - | - |
| 1777699295 | - | 72% | 1018.6 hPa | 0 mm | - | - | - |
| 1777698971 | - | 72% | 1018.7 hPa | 0 mm | - | - | - |
* Rain latest hour (hover to see other rain measurements)
** Current wind speed in m/s (hover to see current wind gust speed)